sensor_id;sensor_type;location;lat;lon;timestamp;temperature;humidity
47520;DHT22;33252;48.122;11.538;2024-01-16T00:01:45;-2.70;99.90
47520;DHT22;33252;48.122;11.538;2024-01-16T00:04:11;-2.70;99.90
47520;DHT22;33252;48.122;11.538;2024-01-16T00:06:42;-2.70;99.90
47520;DHT22;33252;48.122;11.538;2024-01-16T00:09:08;-2.70;99.90
47520;DHT22;33252;48.122;11.538;2024-01-16T00:11:42;-2.70;99.90
47520;DHT22;33252;48.122;11.538;2024-01-16T00:14:08;-2.70;99.90
47520;DHT22;33252;48.122;11.538;2024-01-16T00:16:33;-2.70;99.90
47520;DHT22;33252;48.122;11.538;2024-01-16T00:18:59;-2.70;99.90
47520;DHT22;33252;48.122;11.538;2024-01-16T00:21:25;-2.70;99.90
47520;DHT22;33252;48.122;11.538;2024-01-16T00:23:50;-2.70;99.90
47520;DHT22;33252;48.122;11.538;2024-01-16T00:26:22;-2.80;99.90
47520;DHT22;33252;48.122;11.538;2024-01-16T00:28:48;-2.80;99.90
47520;DHT22;33252;48.122;11.538;2024-01-16T00:31:14;-2.80;99.90
47520;DHT22;33252;48.122;11.538;2024-01-16T00:33:39;-2.70;99.90
47520;DHT22;33252;48.122;11.538;2024-01-16T00:36:05;-2.70;99.90
47520;DHT22;33252;48.122;11.538;2024-01-16T00:38:34;-2.70;99.90
47520;DHT22;33252;48.122;11.538;2024-01-16T00:41:00;-2.70;99.90
47520;DHT22;33252;48.122;11.538;2024-01-16T00:43:26;-2.80;99.90
47520;DHT22;33252;48.122;11.538;2024-01-16T00:45:51;-2.80;99.90
47520;DHT22;33252;48.122;11.538;2024-01-16T00:48:17;-2.80;99.90
47520;DHT22;33252;48.122;11.538;2024-01-16T00:50:43;-2.80;99.90
47520;DHT22;33252;48.122;11.538;2024-01-16T00:53:11;-2.80;99.90
47520;DHT22;33252;48.122;11.538;2024-01-16T00:55:37;-2.90;99.90
47520;DHT22;33252;48.122;11.538;2024-01-16T00:58:02;-2.90;99.90
47520;DHT22;33252;48.122;11.538;2024-01-16T01:00:28;-2.90;99.90
47520;DHT22;33252;48.122;11.538;2024-01-16T01:02:56;-2.90;99.90
47520;DHT22;33252;48.122;11.538;2024-01-16T01:05:21;-2.90;99.90
47520;DHT22;33252;48.122;11.538;2024-01-16T01:07:50;-2.90;99.90
47520;DHT22;33252;48.122;11.538;2024-01-16T01:10:16;-3.00;99.90
47520;DHT22;33252;48.122;11.538;2024-01-16T01:12:41;-3.00;99.90
47520;DHT22;33252;48.122;11.538;2024-01-16T01:15:07;-3.00;99.90
47520;DHT22;33252;48.122;11.538;2024-01-16T01:17:33;-3.00;99.90
47520;DHT22;33252;48.122;11.538;2024-01-16T01:19:59;-3.10;99.90
47520;DHT22;33252;48.122;11.538;2024-01-16T01:22:24;-3.10;99.90
47520;DHT22;33252;48.122;11.538;2024-01-16T01:24:50;-3.10;99.90
47520;DHT22;33252;48.122;11.538;2024-01-16T01:27:15;-3.10;99.90
47520;DHT22;33252;48.122;11.538;2024-01-16T01:29:41;-3.00;99.90
47520;DHT22;33252;48.122;11.538;2024-01-16T01:32:06;-3.00;99.90
47520;DHT22;33252;48.122;11.538;2024-01-16T01:34:32;-3.10;99.90
47520;DHT22;33252;48.122;11.538;2024-01-16T01:36:58;-3.10;99.90
47520;DHT22;33252;48.122;11.538;2024-01-16T01:39:24;-3.10;99.90
47520;DHT22;33252;48.122;11.538;2024-01-16T01:41:50;-3.10;99.90
47520;DHT22;33252;48.122;11.538;2024-01-16T01:44:15;-3.00;99.90
47520;DHT22;33252;48.122;11.538;2024-01-16T01:46:42;-3.00;99.90
47520;DHT22;33252;48.122;11.538;2024-01-16T01:49:08;-3.00;99.90
47520;DHT22;33252;48.122;11.538;2024-01-16T01:51:33;-3.00;99.90
47520;DHT22;33252;48.122;11.538;2024-01-16T01:54:00;-2.90;99.90
47520;DHT22;33252;48.122;11.538;2024-01-16T01:56:27;-2.90;99.90
47520;DHT22;33252;48.122;11.538;2024-01-16T01:58:57;-2.90;99.90
47520;DHT22;33252;48.122;11.538;2024-01-16T02:01:24;-2.80;99.90
47520;DHT22;33252;48.122;11.538;2024-01-16T02:03:52;-2.80;99.90
47520;DHT22;33252;48.122;11.538;2024-01-16T02:06:18;-2.80;99.90
47520;DHT22;33252;48.122;11.538;2024-01-16T02:08:44;-2.70;99.90
47520;DHT22;33252;48.122;11.538;2024-01-16T02:11:10;-2.80;99.90
47520;DHT22;33252;48.122;11.538;2024-01-16T02:13:36;-2.80;99.90
47520;DHT22;33252;48.122;11.538;2024-01-16T02:16:02;-2.80;99.90
47520;DHT22;33252;48.122;11.538;2024-01-16T02:18:29;-2.80;99.90
47520;DHT22;33252;48.122;11.538;2024-01-16T02:20:58;-2.70;99.90
47520;DHT22;33252;48.122;11.538;2024-01-16T02:23:26;-2.80;99.90
47520;DHT22;33252;48.122;11.538;2024-01-16T02:25:52;-2.80;99.90
47520;DHT22;33252;48.122;11.538;2024-01-16T02:28:18;-2.90;99.90
47520;DHT22;33252;48.122;11.538;2024-01-16T02:30:43;-2.90;99.90
47520;DHT22;33252;48.122;11.538;2024-01-16T02:33:09;-3.00;99.90
47520;DHT22;33252;48.122;11.538;2024-01-16T02:35:34;-3.00;99.90
47520;DHT22;33252;48.122;11.538;2024-01-16T02:38:00;-3.00;99.90
47520;DHT22;33252;48.122;11.538;2024-01-16T02:40:26;-3.00;99.90
47520;DHT22;33252;48.122;11.538;2024-01-16T02:42:52;-3.10;99.90
47520;DHT22;33252;48.122;11.538;2024-01-16T02:45:17;-3.10;99.90
47520;DHT22;33252;48.122;11.538;2024-01-16T02:47:43;-3.10;99.90
47520;DHT22;33252;48.122;11.538;2024-01-16T02:50:09;-3.10;99.90
47520;DHT22;33252;48.122;11.538;2024-01-16T02:52:37;-3.10;99.90
47520;DHT22;33252;48.122;11.538;2024-01-16T02:55:03;-3.10;99.90
47520;DHT22;33252;48.122;11.538;2024-01-16T02:57:30;-3.10;99.90
47520;DHT22;33252;48.122;11.538;2024-01-16T02:59:55;-3.10;99.90
47520;DHT22;33252;48.122;11.538;2024-01-16T03:02:21;-3.20;99.90
47520;DHT22;33252;48.122;11.538;2024-01-16T03:04:48;-3.20;99.90
47520;DHT22;33252;48.122;11.538;2024-01-16T03:07:13;-3.30;99.90
47520;DHT22;33252;48.122;11.538;2024-01-16T03:09:39;-3.30;99.90
47520;DHT22;33252;48.122;11.538;2024-01-16T03:12:05;-3.30;99.90
47520;DHT22;33252;48.122;11.538;2024-01-16T03:14:31;-3.30;99.90
47520;DHT22;33252;48.122;11.538;2024-01-16T03:17:04;-3.30;99.90
47520;DHT22;33252;48.122;11.538;2024-01-16T03:19:29;-3.30;99.90
47520;DHT22;33252;48.122;11.538;2024-01-16T03:21:55;-3.40;99.90
47520;DHT22;33252;48.122;11.538;2024-01-16T03:24:21;-3.40;99.90
47520;DHT22;33252;48.122;11.538;2024-01-16T03:26:46;-3.40;99.90
47520;DHT22;33252;48.122;11.538;2024-01-16T03:29:12;-3.40;99.90
47520;DHT22;33252;48.122;11.538;2024-01-16T03:31:38;-3.50;99.90
47520;DHT22;33252;48.122;11.538;2024-01-16T03:34:03;-3.50;99.90
47520;DHT22;33252;48.122;11.538;2024-01-16T03:36:29;-3.50;99.90
47520;DHT22;33252;48.122;11.538;2024-01-16T03:38:54;-3.50;99.90
47520;DHT22;33252;48.122;11.538;2024-01-16T03:41:20;-3.50;99.90
47520;DHT22;33252;48.122;11.538;2024-01-16T03:43:45;-3.50;99.90
47520;DHT22;33252;48.122;11.538;2024-01-16T03:46:11;-3.50;99.90
47520;DHT22;33252;48.122;11.538;2024-01-16T03:48:37;-3.50;99.90
47520;DHT22;33252;48.122;11.538;2024-01-16T03:51:02;-3.50;99.90
47520;DHT22;33252;48.122;11.538;2024-01-16T03:53:28;-3.50;99.90
47520;DHT22;33252;48.122;11.538;2024-01-16T03:55:54;-3.50;99.90
47520;DHT22;33252;48.122;11.538;2024-01-16T03:58:19;-3.50;99.90
47520;DHT22;33252;48.122;11.538;2024-01-16T04:00:45;-3.50;99.90
47520;DHT22;33252;48.122;11.538;2024-01-16T04:03:11;-3.50;99.90
47520;DHT22;33252;48.122;11.538;2024-01-16T04:05:37;-3.50;99.90
47520;DHT22;33252;48.122;11.538;2024-01-16T04:08:02;-3.40;99.90
47520;DHT22;33252;48.122;11.538;2024-01-16T04:10:28;-3.40;99.90
47520;DHT22;33252;48.122;11.538;2024-01-16T04:12:53;-3.40;99.90
47520;DHT22;33252;48.122;11.538;2024-01-16T04:15:19;-3.30;99.90
47520;DHT22;33252;48.122;11.538;2024-01-16T04:17:44;-3.30;99.90
47520;DHT22;33252;48.122;11.538;2024-01-16T04:20:10;-3.20;99.90
47520;DHT22;33252;48.122;11.538;2024-01-16T04:22:36;-3.20;99.90
47520;DHT22;33252;48.122;11.538;2024-01-16T04:25:02;-3.20;99.90
47520;DHT22;33252;48.122;11.538;2024-01-16T04:27:30;-3.20;99.90
47520;DHT22;33252;48.122;11.538;2024-01-16T04:29:57;-3.20;99.90
47520;DHT22;33252;48.122;11.538;2024-01-16T04:32:22;-3.20;99.90
47520;DHT22;33252;48.122;11.538;2024-01-16T04:34:48;-3.20;99.90
47520;DHT22;33252;48.122;11.538;2024-01-16T04:37:13;-3.30;99.90
47520;DHT22;33252;48.122;11.538;2024-01-16T04:39:39;-3.30;99.90
47520;DHT22;33252;48.122;11.538;2024-01-16T04:42:04;-3.20;99.90
47520;DHT22;33252;48.122;11.538;2024-01-16T04:44:30;-3.20;99.90
47520;DHT22;33252;48.122;11.538;2024-01-16T04:46:55;-3.30;99.90
47520;DHT22;33252;48.122;11.538;2024-01-16T04:49:21;-3.40;99.90
47520;DHT22;33252;48.122;11.538;2024-01-16T04:51:46;-3.30;99.90
47520;DHT22;33252;48.122;11.538;2024-01-16T04:54:12;-3.30;99.90
47520;DHT22;33252;48.122;11.538;2024-01-16T04:56:38;-3.40;99.90
47520;DHT22;33252;48.122;11.538;2024-01-16T04:59:03;-3.40;99.90
47520;DHT22;33252;48.122;11.538;2024-01-16T05:01:29;-3.40;99.90
47520;DHT22;33252;48.122;11.538;2024-01-16T05:03:55;-3.40;99.90
47520;DHT22;33252;48.122;11.538;2024-01-16T05:06:20;-3.40;99.90
47520;DHT22;33252;48.122;11.538;2024-01-16T05:08:47;-3.50;99.90
47520;DHT22;33252;48.122;11.538;2024-01-16T05:11:12;-3.50;99.90
47520;DHT22;33252;48.122;11.538;2024-01-16T05:13:38;-3.50;99.90
47520;DHT22;33252;48.122;11.538;2024-01-16T05:16:04;-3.60;99.90
47520;DHT22;33252;48.122;11.538;2024-01-16T05:18:29;-3.60;99.90
47520;DHT22;33252;48.122;11.538;2024-01-16T05:20:55;-3.60;99.90
47520;DHT22;33252;48.122;11.538;2024-01-16T05:23:21;-3.50;99.90
47520;DHT22;33252;48.122;11.538;2024-01-16T05:25:47;-3.60;99.90
47520;DHT22;33252;48.122;11.538;2024-01-16T05:28:13;-3.60;99.90
47520;DHT22;33252;48.122;11.538;2024-01-16T05:30:38;-3.70;99.90
47520;DHT22;33252;48.122;11.538;2024-01-16T05:33:04;-3.60;99.90
47520;DHT22;33252;48.122;11.538;2024-01-16T05:35:29;-3.60;99.90
47520;DHT22;33252;48.122;11.538;2024-01-16T05:37:56;-3.70;99.90
47520;DHT22;33252;48.122;11.538;2024-01-16T05:40:22;-3.70;99.90
47520;DHT22;33252;48.122;11.538;2024-01-16T05:42:51;-3.70;99.90
47520;DHT22;33252;48.122;11.538;2024-01-16T05:45:17;-3.70;99.90
47520;DHT22;33252;48.122;11.538;2024-01-16T05:47:43;-3.70;99.90
47520;DHT22;33252;48.122;11.538;2024-01-16T05:50:09;-3.70;99.90
47520;DHT22;33252;48.122;11.538;2024-01-16T05:52:35;-3.80;99.90
47520;DHT22;33252;48.122;11.538;2024-01-16T05:55:01;-3.80;99.90
47520;DHT22;33252;48.122;11.538;2024-01-16T05:57:28;-3.80;99.90
47520;DHT22;33252;48.122;11.538;2024-01-16T05:59:57;-3.80;99.90
47520;DHT22;33252;48.122;11.538;2024-01-16T06:02:23;-3.70;99.90
47520;DHT22;33252;48.122;11.538;2024-01-16T06:04:51;-3.70;99.90
47520;DHT22;33252;48.122;11.538;2024-01-16T06:07:16;-3.70;99.90
47520;DHT22;33252;48.122;11.538;2024-01-16T06:09:42;-3.60;99.90
47520;DHT22;33252;48.122;11.538;2024-01-16T06:12:08;-3.60;99.90
47520;DHT22;33252;48.122;11.538;2024-01-16T06:14:34;-3.60;99.90
47520;DHT22;33252;48.122;11.538;2024-01-16T06:17:00;-3.60;99.90
47520;DHT22;33252;48.122;11.538;2024-01-16T06:19:25;-3.60;99.90
47520;DHT22;33252;48.122;11.538;2024-01-16T06:21:51;-3.60;99.90
47520;DHT22;33252;48.122;11.538;2024-01-16T06:24:16;-3.60;99.90
47520;DHT22;33252;48.122;11.538;2024-01-16T06:26:42;-3.60;99.90
47520;DHT22;33252;48.122;11.538;2024-01-16T06:29:08;-3.60;99.90
47520;DHT22;33252;48.122;11.538;2024-01-16T06:31:33;-3.60;99.90
47520;DHT22;33252;48.122;11.538;2024-01-16T06:33:59;-3.60;99.90
47520;DHT22;33252;48.122;11.538;2024-01-16T06:36:25;-3.60;99.90
47520;DHT22;33252;48.122;11.538;2024-01-16T06:38:50;-3.60;99.90
47520;DHT22;33252;48.122;11.538;2024-01-16T06:41:16;-3.60;99.90
47520;DHT22;33252;48.122;11.538;2024-01-16T06:43:42;-3.60;99.90
47520;DHT22;33252;48.122;11.538;2024-01-16T06:46:07;-3.60;99.90
47520;DHT22;33252;48.122;11.538;2024-01-16T06:48:35;-3.50;99.90
47520;DHT22;33252;48.122;11.538;2024-01-16T06:51:02;-3.50;99.90
47520;DHT22;33252;48.122;11.538;2024-01-16T06:53:28;-3.50;99.90
47520;DHT22;33252;48.122;11.538;2024-01-16T06:55:53;-3.50;99.90
47520;DHT22;33252;48.122;11.538;2024-01-16T06:58:19;-3.50;99.90
47520;DHT22;33252;48.122;11.538;2024-01-16T07:00:44;-3.40;99.90
47520;DHT22;33252;48.122;11.538;2024-01-16T07:03:11;-3.40;99.90
47520;DHT22;33252;48.122;11.538;2024-01-16T07:05:36;-3.40;99.90
47520;DHT22;33252;48.122;11.538;2024-01-16T07:08:02;-3.40;99.90
47520;DHT22;33252;48.122;11.538;2024-01-16T07:10:28;-3.30;99.90
47520;DHT22;33252;48.122;11.538;2024-01-16T07:12:53;-3.30;99.90
47520;DHT22;33252;48.122;11.538;2024-01-16T07:15:20;-3.30;99.90
47520;DHT22;33252;48.122;11.538;2024-01-16T07:17:46;-3.30;99.90
47520;DHT22;33252;48.122;11.538;2024-01-16T07:20:12;-3.30;99.90
47520;DHT22;33252;48.122;11.538;2024-01-16T07:22:37;-3.20;99.90
47520;DHT22;33252;48.122;11.538;2024-01-16T07:25:07;-3.20;99.90
47520;DHT22;33252;48.122;11.538;2024-01-16T07:27:32;-3.20;99.90
47520;DHT22;33252;48.122;11.538;2024-01-16T07:29:58;-3.20;99.90
47520;DHT22;33252;48.122;11.538;2024-01-16T07:32:23;-3.10;99.90
47520;DHT22;33252;48.122;11.538;2024-01-16T07:34:49;-3.20;99.90
47520;DHT22;33252;48.122;11.538;2024-01-16T07:37:15;-3.10;99.90
47520;DHT22;33252;48.122;11.538;2024-01-16T07:39:41;-3.20;99.90
47520;DHT22;33252;48.122;11.538;2024-01-16T07:42:07;-3.20;99.90
47520;DHT22;33252;48.122;11.538;2024-01-16T07:44:33;-3.30;99.90
47520;DHT22;33252;48.122;11.538;2024-01-16T07:46:58;-3.30;99.90
47520;DHT22;33252;48.122;11.538;2024-01-16T07:49:24;-3.30;99.90
47520;DHT22;33252;48.122;11.538;2024-01-16T07:51:50;-3.30;99.90
47520;DHT22;33252;48.122;11.538;2024-01-16T07:54:15;-3.30;99.90
47520;DHT22;33252;48.122;11.538;2024-01-16T07:56:41;-3.30;99.90
47520;DHT22;33252;48.122;11.538;2024-01-16T07:59:07;-3.30;99.90
47520;DHT22;33252;48.122;11.538;2024-01-16T08:01:32;-3.30;99.90
47520;DHT22;33252;48.122;11.538;2024-01-16T08:03:58;-3.20;99.90
47520;DHT22;33252;48.122;11.538;2024-01-16T08:06:24;-3.20;99.90
47520;DHT22;33252;48.122;11.538;2024-01-16T08:08:50;-3.10;99.90
47520;DHT22;33252;48.122;11.538;2024-01-16T08:11:16;-3.10;99.90
47520;DHT22;33252;48.122;11.538;2024-01-16T08:13:42;-3.10;99.90
47520;DHT22;33252;48.122;11.538;2024-01-16T08:16:08;-3.10;99.90
47520;DHT22;33252;48.122;11.538;2024-01-16T08:18:36;-3.00;99.90
47520;DHT22;33252;48.122;11.538;2024-01-16T08:21:02;-3.00;99.90
47520;DHT22;33252;48.122;11.538;2024-01-16T08:23:27;-2.90;99.90
47520;DHT22;33252;48.122;11.538;2024-01-16T08:25:53;-2.80;99.90
47520;DHT22;33252;48.122;11.538;2024-01-16T08:28:18;-2.80;99.90
47520;DHT22;33252;48.122;11.538;2024-01-16T08:30:44;-2.70;99.90
47520;DHT22;33252;48.122;11.538;2024-01-16T08:33:11;-2.70;99.90
47520;DHT22;33252;48.122;11.538;2024-01-16T08:35:37;-2.70;99.90
47520;DHT22;33252;48.122;11.538;2024-01-16T08:38:03;-2.70;99.90
47520;DHT22;33252;48.122;11.538;2024-01-16T08:40:28;-2.60;99.90
47520;DHT22;33252;48.122;11.538;2024-01-16T08:42:54;-2.60;99.90
47520;DHT22;33252;48.122;11.538;2024-01-16T08:45:23;-2.50;99.90
47520;DHT22;33252;48.122;11.538;2024-01-16T08:47:49;-2.50;99.90
47520;DHT22;33252;48.122;11.538;2024-01-16T08:50:17;-2.50;99.90
47520;DHT22;33252;48.122;11.538;2024-01-16T08:52:43;-2.60;99.90
47520;DHT22;33252;48.122;11.538;2024-01-16T08:55:08;-2.60;99.90
47520;DHT22;33252;48.122;11.538;2024-01-16T08:57:36;-2.60;99.90
47520;DHT22;33252;48.122;11.538;2024-01-16T09:00:03;-2.50;99.90
47520;DHT22;33252;48.122;11.538;2024-01-16T09:02:29;-2.50;99.90
47520;DHT22;33252;48.122;11.538;2024-01-16T09:04:56;-2.30;99.90
47520;DHT22;33252;48.122;11.538;2024-01-16T09:07:21;-2.30;99.90
47520;DHT22;33252;48.122;11.538;2024-01-16T09:09:48;-2.20;99.90
47520;DHT22;33252;48.122;11.538;2024-01-16T09:12:13;-2.20;99.90
47520;DHT22;33252;48.122;11.538;2024-01-16T09:14:39;-2.20;99.90
47520;DHT22;33252;48.122;11.538;2024-01-16T09:17:04;-2.10;99.90
47520;DHT22;33252;48.122;11.538;2024-01-16T09:19:30;-2.10;99.90
47520;DHT22;33252;48.122;11.538;2024-01-16T09:21:56;-2.00;99.90
47520;DHT22;33252;48.122;11.538;2024-01-16T09:24:22;-1.90;99.90
47520;DHT22;33252;48.122;11.538;2024-01-16T09:26:47;-1.90;99.90
47520;DHT22;33252;48.122;11.538;2024-01-16T09:29:13;-1.70;99.90
47520;DHT22;33252;48.122;11.538;2024-01-16T09:31:40;-1.70;99.90
47520;DHT22;33252;48.122;11.538;2024-01-16T09:34:06;-1.70;99.90
47520;DHT22;33252;48.122;11.538;2024-01-16T09:36:32;-1.60;99.90
47520;DHT22;33252;48.122;11.538;2024-01-16T09:38:57;-1.40;99.90
47520;DHT22;33252;48.122;11.538;2024-01-16T09:41:23;-1.40;99.90
47520;DHT22;33252;48.122;11.538;2024-01-16T09:43:49;-1.50;99.90
47520;DHT22;33252;48.122;11.538;2024-01-16T09:46:17;-1.40;99.90
47520;DHT22;33252;48.122;11.538;2024-01-16T09:48:45;-1.40;99.90
47520;DHT22;33252;48.122;11.538;2024-01-16T09:51:11;-1.30;99.90
47520;DHT22;33252;48.122;11.538;2024-01-16T09:53:41;-1.20;99.90
47520;DHT22;33252;48.122;11.538;2024-01-16T09:56:22;-1.10;99.90
47520;DHT22;33252;48.122;11.538;2024-01-16T09:58:50;-1.20;99.90
47520;DHT22;33252;48.122;11.538;2024-01-16T10:01:18;-1.20;99.90
47520;DHT22;33252;48.122;11.538;2024-01-16T10:03:45;-1.20;99.90
47520;DHT22;33252;48.122;11.538;2024-01-16T10:06:11;-1.30;99.90
47520;DHT22;33252;48.122;11.538;2024-01-16T10:08:37;-1.20;99.90
47520;DHT22;33252;48.122;11.538;2024-01-16T10:11:03;-1.10;99.90
47520;DHT22;33252;48.122;11.538;2024-01-16T10:13:29;-1.10;99.90
47520;DHT22;33252;48.122;11.538;2024-01-16T10:15:55;-1.10;99.90
47520;DHT22;33252;48.122;11.538;2024-01-16T10:18:25;-1.00;99.90
47520;DHT22;33252;48.122;11.538;2024-01-16T10:20:50;-0.90;99.40
47520;DHT22;33252;48.122;11.538;2024-01-16T10:23:28;-0.90;99.70
47520;DHT22;33252;48.122;11.538;2024-01-16T10:28:32;-0.80;99.30
47520;DHT22;33252;48.122;11.538;2024-01-16T10:31:10;-0.90;99.60
47520;DHT22;33252;48.122;11.538;2024-01-16T10:33:37;-0.90;99.20
47520;DHT22;33252;48.122;11.538;2024-01-16T10:36:08;-0.80;99.30
47520;DHT22;33252;48.122;11.538;2024-01-16T10:38:35;-0.80;99.00
47520;DHT22;33252;48.122;11.538;2024-01-16T10:41:08;-0.80;98.90
47520;DHT22;33252;48.122;11.538;2024-01-16T10:43:34;-0.70;99.10
47520;DHT22;33252;48.122;11.538;2024-01-16T10:46:17;-0.70;98.90
47520;DHT22;33252;48.122;11.538;2024-01-16T10:48:44;-0.80;98.90
47520;DHT22;33252;48.122;11.538;2024-01-16T10:51:11;-0.80;99.00
47520;DHT22;33252;48.122;11.538;2024-01-16T10:53:42;-0.80;98.90
47520;DHT22;33252;48.122;11.538;2024-01-16T10:56:10;-0.80;98.90
47520;DHT22;33252;48.122;11.538;2024-01-16T10:58:42;-0.70;99.20
47520;DHT22;33252;48.122;11.538;2024-01-16T11:01:14;-0.60;98.60
47520;DHT22;33252;48.122;11.538;2024-01-16T11:03:49;-0.60;97.40
47520;DHT22;33252;48.122;11.538;2024-01-16T11:06:16;-0.50;98.10
47520;DHT22;33252;48.122;11.538;2024-01-16T11:08:42;-0.50;97.40
47520;DHT22;33252;48.122;11.538;2024-01-16T11:11:10;-0.50;98.40
47520;DHT22;33252;48.122;11.538;2024-01-16T11:13:37;-0.40;98.30
47520;DHT22;33252;48.122;11.538;2024-01-16T11:16:03;-0.20;98.70
47520;DHT22;33252;48.122;11.538;2024-01-16T11:18:31;-0.30;98.10
47520;DHT22;33252;48.122;11.538;2024-01-16T11:20:58;-0.20;97.70
47520;DHT22;33252;48.122;11.538;2024-01-16T11:23:24;-0.40;97.20
47520;DHT22;33252;48.122;11.538;2024-01-16T11:25:50;-0.30;96.50
47520;DHT22;33252;48.122;11.538;2024-01-16T11:28:15;-0.30;95.90
47520;DHT22;33252;48.122;11.538;2024-01-16T11:30:42;-0.40;95.90
47520;DHT22;33252;48.122;11.538;2024-01-16T11:35:56;-0.30;96.70
47520;DHT22;33252;48.122;11.538;2024-01-16T11:38:23;-0.30;96.30
47520;DHT22;33252;48.122;11.538;2024-01-16T11:40:52;-0.40;96.00
47520;DHT22;33252;48.122;11.538;2024-01-16T11:46:06;-0.30;96.00
47520;DHT22;33252;48.122;11.538;2024-01-16T11:48:33;-0.40;96.20
47520;DHT22;33252;48.122;11.538;2024-01-16T11:50:59;-0.30;94.70
47520;DHT22;33252;48.122;11.538;2024-01-16T11:56:28;-0.30;95.00
47520;DHT22;33252;48.122;11.538;2024-01-16T12:01:45;-0.10;95.20
47520;DHT22;33252;48.122;11.538;2024-01-16T12:04:11;-0.20;93.70
47520;DHT22;33252;48.122;11.538;2024-01-16T12:06:37;-0.20;94.70
47520;DHT22;33252;48.122;11.538;2024-01-16T12:11:38;-0.20;94.50
47520;DHT22;33252;48.122;11.538;2024-01-16T12:14:04;-0.10;94.00
47520;DHT22;33252;48.122;11.538;2024-01-16T12:16:29;-0.10;94.40
47520;DHT22;33252;48.122;11.538;2024-01-16T12:19:08;0.00;93.20
47520;DHT22;33252;48.122;11.538;2024-01-16T12:21:44;-0.10;94.50
47520;DHT22;33252;48.122;11.538;2024-01-16T12:24:13;-0.10;94.70
47520;DHT22;33252;48.122;11.538;2024-01-16T12:26:39;-0.10;94.60
47520;DHT22;33252;48.122;11.538;2024-01-16T12:29:05;0.00;94.90
47520;DHT22;33252;48.122;11.538;2024-01-16T12:31:31;0.00;94.00
47520;DHT22;33252;48.122;11.538;2024-01-16T12:34:06;0.10;94.90
47520;DHT22;33252;48.122;11.538;2024-01-16T12:36:33;0.00;93.80
47520;DHT22;33252;48.122;11.538;2024-01-16T12:38:58;0.00;94.20
47520;DHT22;33252;48.122;11.538;2024-01-16T12:41:24;0.00;94.10
47520;DHT22;33252;48.122;11.538;2024-01-16T12:43:51;0.00;94.70
47520;DHT22;33252;48.122;11.538;2024-01-16T12:46:17;0.00;94.60
47520;DHT22;33252;48.122;11.538;2024-01-16T12:48:44;0.10;94.60
47520;DHT22;33252;48.122;11.538;2024-01-16T12:51:12;0.10;94.90
47520;DHT22;33252;48.122;11.538;2024-01-16T12:53:45;0.20;94.60
47520;DHT22;33252;48.122;11.538;2024-01-16T12:56:10;0.40;93.10
47520;DHT22;33252;48.122;11.538;2024-01-16T12:58:37;0.20;94.50
47520;DHT22;33252;48.122;11.538;2024-01-16T13:01:27;0.20;94.20
47520;DHT22;33252;48.122;11.538;2024-01-16T13:03:57;0.20;93.00
47520;DHT22;33252;48.122;11.538;2024-01-16T13:06:24;0.20;94.40
47520;DHT22;33252;48.122;11.538;2024-01-16T13:08:50;0.20;94.30
47520;DHT22;33252;48.122;11.538;2024-01-16T13:11:17;0.20;91.90
47520;DHT22;33252;48.122;11.538;2024-01-16T13:13:46;0.10;92.60
47520;DHT22;33252;48.122;11.538;2024-01-16T13:16:16;0.20;92.70
47520;DHT22;33252;48.122;11.538;2024-01-16T13:18:42;0.30;93.80
47520;DHT22;33252;48.122;11.538;2024-01-16T13:21:08;0.20;94.00
47520;DHT22;33252;48.122;11.538;2024-01-16T13:23:33;0.30;93.80
47520;DHT22;33252;48.122;11.538;2024-01-16T13:26:00;0.20;93.10
47520;DHT22;33252;48.122;11.538;2024-01-16T13:28:28;0.20;91.10
47520;DHT22;33252;48.122;11.538;2024-01-16T13:30:55;0.20;92.70
47520;DHT22;33252;48.122;11.538;2024-01-16T13:33:23;0.20;93.00
47520;DHT22;33252;48.122;11.538;2024-01-16T13:35:52;0.30;93.40
47520;DHT22;33252;48.122;11.538;2024-01-16T13:38:20;0.20;93.20
47520;DHT22;33252;48.122;11.538;2024-01-16T13:40:46;0.20;92.30
47520;DHT22;33252;48.122;11.538;2024-01-16T13:43:11;0.20;91.70
47520;DHT22;33252;48.122;11.538;2024-01-16T13:45:37;0.30;93.10
47520;DHT22;33252;48.122;11.538;2024-01-16T13:48:05;0.20;93.20
47520;DHT22;33252;48.122;11.538;2024-01-16T13:50:31;0.30;92.90
47520;DHT22;33252;48.122;11.538;2024-01-16T13:52:58;0.40;92.20
47520;DHT22;33252;48.122;11.538;2024-01-16T13:55:24;0.40;93.30
47520;DHT22;33252;48.122;11.538;2024-01-16T13:57:49;0.40;93.80
47520;DHT22;33252;48.122;11.538;2024-01-16T14:00:15;0.40;93.40
47520;DHT22;33252;48.122;11.538;2024-01-16T14:02:42;0.30;93.40
47520;DHT22;33252;48.122;11.538;2024-01-16T14:05:11;0.30;93.60
47520;DHT22;33252;48.122;11.538;2024-01-16T14:07:50;0.30;93.70
47520;DHT22;33252;48.122;11.538;2024-01-16T14:10:20;0.40;94.00
47520;DHT22;33252;48.122;11.538;2024-01-16T14:12:47;0.30;93.90
47520;DHT22;33252;48.122;11.538;2024-01-16T14:15:14;0.30;92.90
47520;DHT22;33252;48.122;11.538;2024-01-16T14:17:53;0.30;92.80
47520;DHT22;33252;48.122;11.538;2024-01-16T14:20:20;0.20;91.60
47520;DHT22;33252;48.122;11.538;2024-01-16T14:22:48;0.30;93.00
47520;DHT22;33252;48.122;11.538;2024-01-16T14:25:14;0.20;92.90
47520;DHT22;33252;48.122;11.538;2024-01-16T14:30:16;0.20;94.30
47520;DHT22;33252;48.122;11.538;2024-01-16T14:32:43;0.10;95.60
47520;DHT22;33252;48.122;11.538;2024-01-16T14:35:10;0.10;94.30
47520;DHT22;33252;48.122;11.538;2024-01-16T14:37:37;0.20;94.10
47520;DHT22;33252;48.122;11.538;2024-01-16T14:40:03;0.20;93.50
47520;DHT22;33252;48.122;11.538;2024-01-16T14:42:40;0.10;93.10
47520;DHT22;33252;48.122;11.538;2024-01-16T14:45:06;0.10;93.60
47520;DHT22;33252;48.122;11.538;2024-01-16T14:47:33;0.10;95.20
47520;DHT22;33252;48.122;11.538;2024-01-16T14:49:58;0.10;93.50
47520;DHT22;33252;48.122;11.538;2024-01-16T14:52:24;0.10;95.40
47520;DHT22;33252;48.122;11.538;2024-01-16T14:54:49;0.10;95.10
47520;DHT22;33252;48.122;11.538;2024-01-16T14:57:15;0.10;95.20
47520;DHT22;33252;48.122;11.538;2024-01-16T14:59:41;0.10;94.90
47520;DHT22;33252;48.122;11.538;2024-01-16T15:02:07;0.10;95.10
47520;DHT22;33252;48.122;11.538;2024-01-16T15:04:39;0.10;95.80
47520;DHT22;33252;48.122;11.538;2024-01-16T15:07:05;0.00;95.50
47520;DHT22;33252;48.122;11.538;2024-01-16T15:09:31;0.00;94.20
47520;DHT22;33252;48.122;11.538;2024-01-16T15:12:09;0.10;94.60
47520;DHT22;33252;48.122;11.538;2024-01-16T15:14:34;0.10;94.40
47520;DHT22;33252;48.122;11.538;2024-01-16T15:17:01;0.00;95.40
47520;DHT22;33252;48.122;11.538;2024-01-16T15:19:27;0.00;94.80
47520;DHT22;33252;48.122;11.538;2024-01-16T15:21:53;0.00;95.30
47520;DHT22;33252;48.122;11.538;2024-01-16T15:24:18;0.00;95.00
47520;DHT22;33252;48.122;11.538;2024-01-16T15:26:54;0.00;95.50
47520;DHT22;33252;48.122;11.538;2024-01-16T15:29:21;0.10;95.50
47520;DHT22;33252;48.122;11.538;2024-01-16T15:31:47;0.00;96.00
47520;DHT22;33252;48.122;11.538;2024-01-16T15:34:12;0.00;95.80
47520;DHT22;33252;48.122;11.538;2024-01-16T15:36:38;-0.10;95.50